Terminal Aerodrome Forecast
Issued by NWS Charleston, WV

Current Version | Previous Version | Text Only | Print | Product List | Glossary Off
Versions: 1 2 3 4 5 6 7 8 9 10 11 12 13 14 15 16 17 18 19 20 21 22 23

880
FTUS41 KRLX 040859 AAA
TAFEKN
TAF AMD
KEKN 040859Z 0409/0506 30006KT P6SM OVC025
     FM041300 27004KT P6SM OVC015
     FM041800 28006KT P6SM BKN025=

USA.gov is the U.S. government's official web portal to all federal, state and local government web resources and services.